Bookmark and Share
Track history (hours):
 

Ncc Najd

Last reported at 2014-Apr-18 08:33 UTC. Time now 2014-Apr-19 09:25 UTC.
Position N 30°32' E 122°22'.

Length 183 m; draft 7 m.

Type: Ship. MMSI: 403579000.

NotesDate/timePositionNaut miles runAvg speedWind from/ knotsBaromVisibWave heightAir tempDewpointWater temp
2014-Apr-18 08:33N 30°32' E 122°22'1615.4
2014-Apr-18 07:32N 30°32' E 122°04'1414.4
2014-Apr-18 06:32N 30°30' E 121°47'  
2014-Apr-15 20:26N 30°31' E 121°56'1010.8
2014-Apr-15 19:33N 30°32' E 122°07'1111.5
2014-Apr-15 18:33N 30°42' E 122°15'1312.5
2014-Apr-15 17:32N 30°52' E 122°23'9 7.4
2014-Apr-15 16:21N 31°01' E 122°25'1212.4
2014-Apr-15 15:22N 31°02' E 122°11'40 8.4
2014-Apr-15 10:34N 31°25' E 121°32'7 6.6
2014-Apr-15 09:34N 31°29' E 121°26'10 9.8
2014-Apr-15 08:34N 31°36' E 121°17'1312.4
2014-Apr-15 07:30N 31°45' E 121°06'1111.5
2014-Apr-15 06:33N 31°50' E 120°54'1212.5
2014-Apr-15 05:34N 32°01' E 120°48'17 8.6
2014-Apr-15 03:34N 31°60' E 120°27'0 0.0
2014-Apr-15 02:31N 31°60' E 120°27'0 0.0
2014-Apr-15 01:34N 31°60' E 120°27'0 0.0
2014-Apr-14 23:34N 31°60' E 120°27'0 0.0
2014-Apr-14 22:34N 31°60' E 120°27'0 0.0
2014-Apr-14 21:34N 31°60' E 120°27'0 0.0
2014-Apr-14 20:34N 31°60' E 120°27'0 0.0
2014-Apr-14 19:34N 31°60' E 120°27'0 0.0
2014-Apr-14 18:34N 31°60' E 120°27'0 0.0
2014-Apr-14 17:34N 31°60' E 120°27'0 0.0
2014-Apr-14 16:34N 31°60' E 120°27'0 0.0
2014-Apr-14 15:34N 31°60' E 120°27'0 0.0
2014-Apr-14 14:31N 31°60' E 120°27'0 0.0
2014-Apr-14 13:34N 31°60' E 120°27'0 0.0
2014-Apr-14 11:34N 31°60' E 120°27'0 0.0
2014-Apr-14 10:34N 31°60' E 120°27'0 0.0
2014-Apr-14 09:34N 31°60' E 120°27'0 0.0
2014-Apr-14 08:31N 31°60' E 120°27'2 2.4
2014-Apr-14 07:34N 32°02' E 120°28'1414.4
2014-Apr-14 06:33N 32°01' E 120°45'1312.8
2014-Apr-14 05:33N 31°51' E 120°54'25 1.9
2014-Apr-13 16:05N 31°35' E 121°17'0 0.0
2014-Apr-13 10:05N 31°35' E 121°17'0 0.0
2014-Apr-13 09:11N 31°35' E 121°17'0 0.0
2014-Apr-13 08:23N 31°35' E 121°17'0 0.0
2014-Apr-13 07:11N 31°35' E 121°17'0 0.0
2014-Apr-13 04:17N 31°35' E 121°17'0 0.0
2014-Apr-13 03:05N 31°35' E 121°17'0 0.0
2014-Apr-13 02:23N 31°35' E 121°17'0 0.0
2014-Apr-13 01:23N 31°35' E 121°17'0 0.0
2014-Apr-12 21:23N 31°35' E 121°17'0 0.0
2014-Apr-12 16:11N 31°35' E 121°17'0 0.0
2014-Apr-12 12:23N 31°35' E 121°17'0 0.0
2014-Apr-12 06:23N 31°35' E 121°17'3 3.4
2014-Apr-12 05:33N 31°34' E 121°20'0 0.3
2014-Apr-12 04:17N 31°34' E 121°20'0 0.0
2014-Apr-12 03:29N 31°34' E 121°20'0 0.0
2014-Apr-12 02:23N 31°34' E 121°20'0 0.0
2014-Apr-12 01:29N 31°34' E 121°20'0 0.2
2014-Apr-12 00:23N 31°34' E 121°20'0 0.0
2014-Apr-11 23:05N 31°34' E 121°20'0 0.0
2014-Apr-11 22:29N 31°34' E 121°20'0 0.0
2014-Apr-11 21:17N 31°34' E 121°20'0 0.0
2014-Apr-11 20:23N 31°34' E 121°20'0 0.0
2014-Apr-11 19:05N 31°34' E 121°20'0 0.1
2014-Apr-11 17:29N 31°34' E 121°20'0 0.1
2014-Apr-11 16:17N 31°34' E 121°20'0 0.0
2014-Apr-11 15:29N 31°34' E 121°20'0 0.0
2014-Apr-11 14:23N 31°34' E 121°20'0 0.0
2014-Apr-11 13:29N 31°34' E 121°20'0 0.1
2014-Apr-11 12:23N 31°34' E 121°20'0 0.1
2014-Apr-11 11:29N 31°34' E 121°20'0 0.0
2014-Apr-11 10:11N 31°34' E 121°20'0 0.0
2014-Apr-11 09:17N 31°34' E 121°20'0 0.0
2014-Apr-11 08:17N 31°34' E 121°20'0 0.1
2014-Apr-11 06:32N 31°34' E 121°20'7 7.6
2014-Apr-11 05:33N 31°29' E 121°27'8 8.4
2014-Apr-11 04:33N 31°24' E 121°34'1111.3
2014-Apr-11 03:33N 31°18' E 121°46'10 9.9
2014-Apr-11 02:33N 31°15' E 121°57'1311.2
2014-Apr-11 01:25N 31°11' E 122°11'910.7
2014-Apr-11 00:33N 31°06' E 122°21'10 9.4
2014-Apr-10 23:33N 31°07' E 122°32'6 5.4
2014-Apr-10 22:27N 31°09' E 122°38'2 0.4
2014-Apr-10 17:19N 31°10' E 122°39'0 0.0
2014-Apr-10 16:31N 31°10' E 122°39'0 0.0
2014-Apr-10 13:10N 31°10' E 122°39'0 0.3
2014-Apr-10 12:32N 31°10' E 122°39'10 9.8
2014-Apr-10 11:31N 31°06' E 122°49'1515.6
2014-Apr-10 10:33N 31°00' E 123°05'2014.1
2014-Apr-10 09:07N 30°45' E 123°21'914.7
2014-Apr-10 08:29N 30°36' E 123°20'1414.7
2014-Apr-10 07:33N 30°22' E 123°20'2612.9
2014-Apr-10 05:32N 29°59' E 123°06'1414.7
2014-Apr-10 04:34N 29°53' E 122°51'1515.0
2014-Apr-10 03:33N 29°46' E 122°36'1414.6
2014-Apr-10 02:33N 29°45' E 122°19'1111.5
2014-Apr-10 01:33N 29°54' E 122°10'1211.7
2014-Apr-10 00:33N 29°58' E 121°58'1110.8
2014-Apr-09 23:33N 29°59' E 121°46'1 0.7
2014-Apr-09 22:20N 29°59' E 121°45'0 0.0
2014-Apr-09 21:26N 29°59' E 121°45'0 0.0
2014-Apr-09 20:20N 29°59' E 121°45'0 0.0
2014-Apr-09 19:32N 29°59' E 121°45'0 0.0
2014-Apr-09 12:26N 29°59' E 121°45'0 0.0
2014-Apr-09 09:20N 29°59' E 121°45'0 0.0
2014-Apr-08 22:32N 29°59' E 121°45'0 0.0
2014-Apr-08 21:26N 29°59' E 121°45'0 0.0
2014-Apr-08 19:08N 29°59' E 121°45'0 0.0
2014-Apr-08 17:26N 29°59' E 121°45'0 0.0
2014-Apr-08 16:08N 29°59' E 121°45'  

Dump ship's entire track history

sailing weather and tide predictions

Ncc Najd — HZAK — position and weather